Ingleside, Canada
Current Conditions -  °F | °C
As of 11:53 AM on Wednesday 26 Nov 2014 (Local Time) from KMSS Reporting Station
Clear Clear  
Wind Chill:   Ceiling: Unl
Heat Index:   Visibility: 10mi
Dew Point: -8°   Wind: 3mph
Humidity: 56%   Direction: 20°NNE
Pressure: 30.23"   Gusts: NA
Location:  45°N, 75°W
Report Text: KMSS 261653Z AUTO 02003KT 10SM CLR 00/M08 A3023 RMK AO2 SLP243 T00001078
Loading
Personal Weather Stations






























Interactive Weather Map New forecast layout! Learn more

10-Day Weather Forecast

Advertisements
Track Severe Weather on mobile